createdAt,value
2023-04-20T00:01:55.564Z,9.32
2023-04-20T00:04:23.850Z,9.08
2023-04-20T00:06:52.196Z,9.22
2023-04-20T00:09:20.127Z,9.19
2023-04-20T00:11:48.735Z,9.34
2023-04-20T00:14:16.788Z,9.47
2023-04-20T00:16:44.694Z,9.39
2023-04-20T00:19:13.109Z,9.45
2023-04-20T00:21:41.248Z,9.40
2023-04-20T00:24:09.139Z,9.38
2023-04-20T00:26:37.475Z,9.48
2023-04-20T00:29:05.518Z,9.54
2023-04-20T00:31:33.485Z,9.38
2023-04-20T00:34:01.685Z,9.24
2023-04-20T00:36:30.167Z,9.26
2023-04-20T00:38:59.688Z,9.65
2023-04-20T00:41:29.616Z,9.48
2023-04-20T00:43:57.519Z,9.89
2023-04-20T00:46:25.948Z,9.74
2023-04-20T00:48:54.699Z,9.93
2023-04-20T00:51:23.104Z,9.78
2023-04-20T00:53:50.948Z,9.63
2023-04-20T00:56:19.675Z,9.57
2023-04-20T00:58:47.678Z,9.59
2023-04-20T01:01:17.962Z,9.74
2023-04-20T01:03:47.380Z,9.57
2023-04-20T01:06:15.719Z,9.23
2023-04-20T01:08:51.838Z,9.11
2023-04-20T01:11:19.912Z,8.92
2023-04-20T01:13:47.740Z,8.88
2023-04-20T01:16:15.724Z,8.33
2023-04-20T01:18:47.494Z,8.48
2023-04-20T01:21:17.502Z,8.87
2023-04-20T01:23:46.323Z,8.73
2023-04-20T01:26:16.727Z,8.76
2023-04-20T01:28:45.378Z,8.74
2023-04-20T01:31:16.546Z,8.49
2023-04-20T01:33:44.639Z,8.16
2023-04-20T01:36:13.156Z,7.83
2023-04-20T01:38:41.619Z,8.10
2023-04-20T01:41:10.156Z,7.43
2023-04-20T01:43:39.065Z,7.19
2023-04-20T01:46:07.502Z,7.42
2023-04-20T01:48:35.513Z,7.12
2023-04-20T01:51:03.510Z,6.84
2023-04-20T01:53:31.740Z,6.43
2023-04-20T01:55:59.711Z,6.24
2023-04-20T01:58:27.702Z,6.06
2023-04-20T02:00:56.009Z,6.19
2023-04-20T02:03:24.620Z,6.03
2023-04-20T02:05:52.816Z,5.89
2023-04-20T02:08:21.277Z,6.05
2023-04-20T02:10:49.553Z,6.09
2023-04-20T02:13:17.661Z,5.71
2023-04-20T02:15:46.085Z,5.54
2023-04-20T02:18:15.691Z,5.36
2023-04-20T02:20:44.600Z,5.47
2023-04-20T02:23:12.703Z,5.57
2023-04-20T02:25:40.937Z,5.84
2023-04-20T02:28:08.794Z,5.41
2023-04-20T02:30:39.391Z,5.31
2023-04-20T02:33:07.797Z,5.29
2023-04-20T02:35:35.829Z,5.35
2023-04-20T02:38:03.908Z,5.60
2023-04-20T02:40:32.166Z,5.12
2023-04-20T02:43:00.051Z,5.04
2023-04-20T02:45:28.381Z,5.08
2023-04-20T02:47:57.487Z,4.81
2023-04-20T02:50:26.740Z,4.77
2023-04-20T02:52:55.034Z,4.96
2023-04-20T02:55:23.495Z,5.08
2023-04-20T02:57:51.855Z,5.24
2023-04-20T03:00:20.917Z,5.23
2023-04-20T03:02:52.333Z,4.93
2023-04-20T03:05:20.335Z,5.37
2023-04-20T03:07:48.726Z,4.96
2023-04-20T03:10:17.010Z,4.85
2023-04-20T03:12:45.943Z,5.12
2023-04-20T03:15:17.239Z,5.05
2023-04-20T03:17:47.307Z,4.99
2023-04-20T03:20:15.634Z,4.87
2023-04-20T03:22:43.549Z,4.85
2023-04-20T03:25:12.175Z,4.84
2023-04-20T03:27:41.107Z,4.94
2023-04-20T03:30:10.314Z,4.88
2023-04-20T03:32:39.157Z,4.56
2023-04-20T03:35:07.643Z,4.99
2023-04-20T03:37:38.697Z,5.06
2023-04-20T03:40:08.723Z,4.62
2023-04-20T03:42:37.761Z,4.77
2023-04-20T03:45:06.838Z,4.86
2023-04-20T03:47:35.150Z,5.12
2023-04-20T03:50:03.460Z,5.26
2023-04-20T03:52:31.848Z,5.34
2023-04-20T03:55:00.735Z,5.45
2023-04-20T03:57:28.810Z,5.46
2023-04-20T03:59:56.809Z,4.85
2023-04-20T04:02:25.454Z,4.94
2023-04-20T04:04:54.264Z,5.06
2023-04-20T04:07:22.601Z,5.50
2023-04-20T04:09:50.738Z,5.55
2023-04-20T04:12:19.096Z,5.26
2023-04-20T04:14:47.814Z,5.57
2023-04-20T04:17:16.027Z,5.60
2023-04-20T04:19:44.315Z,5.73
2023-04-20T04:22:12.180Z,5.08
2023-04-20T04:24:41.854Z,5.03
2023-04-20T04:27:11.343Z,5.28
2023-04-20T04:29:42.014Z,5.47
2023-04-20T04:32:12.049Z,5.94
2023-04-20T04:34:39.930Z,6.23
2023-04-20T04:37:08.400Z,6.50
2023-04-20T04:39:38.954Z,7.78
2023-04-20T04:42:07.875Z,8.05
2023-04-20T04:44:37.693Z,9.20
2023-04-20T04:47:06.684Z,8.95
2023-04-20T04:49:35.947Z,9.51
2023-04-20T04:52:04.169Z,9.59
2023-04-20T04:54:32.808Z,9.64
2023-04-20T04:57:03.801Z,10.23
2023-04-20T04:59:33.721Z,9.77
2023-04-20T05:02:02.851Z,9.91
2023-04-20T05:04:31.588Z,10.06
2023-04-20T05:07:00.940Z,10.62
2023-04-20T05:09:33.958Z,11.32
2023-04-20T05:12:04.376Z,11.57
2023-04-20T05:14:34.146Z,10.95
2023-04-20T05:17:03.648Z,11.64
2023-04-20T05:19:32.018Z,11.60
2023-04-20T05:22:00.248Z,11.87
2023-04-20T05:24:29.096Z,11.98
2023-04-20T05:26:56.926Z,12.25
2023-04-20T05:29:24.840Z,11.98
2023-04-20T05:31:53.089Z,12.20
2023-04-20T05:34:21.016Z,12.10
2023-04-20T05:36:48.968Z,11.94
2023-04-20T05:39:17.924Z,12.08
2023-04-20T05:41:47.897Z,13.37
2023-04-20T05:44:15.840Z,13.46
2023-04-20T05:46:44.098Z,13.43
2023-04-20T05:49:12.274Z,14.61
2023-04-20T05:51:40.547Z,14.65
2023-04-20T05:54:08.896Z,14.90
2023-04-20T05:56:36.871Z,15.24
2023-04-20T05:59:05.004Z,15.44
2023-04-20T06:01:33.270Z,14.22
2023-04-20T06:04:01.742Z,14.60
2023-04-20T06:06:29.792Z,15.89
2023-04-20T06:08:58.380Z,14.91
2023-04-20T06:11:26.727Z,15.85
2023-04-20T06:13:54.828Z,15.13
2023-04-20T06:16:22.918Z,15.61
2023-04-20T06:18:51.181Z,15.83
2023-04-20T06:21:19.717Z,15.69
2023-04-20T06:23:47.611Z,16.55
2023-04-20T06:26:15.770Z,16.77
2023-04-20T06:28:43.663Z,17.34
2023-04-20T06:31:12.103Z,16.53
2023-04-20T06:33:41.065Z,17.30
2023-04-20T06:36:09.022Z,17.66
2023-04-20T06:38:37.023Z,17.50
2023-04-20T06:41:05.435Z,18.70
2023-04-20T06:43:33.727Z,19.36
2023-04-20T06:46:03.401Z,18.71
2023-04-20T06:48:33.252Z,17.58
2023-04-20T06:51:02.233Z,17.60
2023-04-20T06:53:30.285Z,17.16
2023-04-20T06:55:58.760Z,18.37
2023-04-20T06:58:26.995Z,18.68
2023-04-20T07:00:55.055Z,17.52
2023-04-20T07:03:24.554Z,18.26
2023-04-20T11:40:09.786Z,20.61
2023-04-20T11:42:38.258Z,20.61
2023-04-20T11:45:07.152Z,20.91
2023-04-20T11:47:35.165Z,23.00
2023-04-20T11:50:03.893Z,23.23
2023-04-20T11:52:31.927Z,23.73
2023-04-20T11:55:00.499Z,23.76
2023-04-20T11:57:28.915Z,24.07
2023-04-20T11:59:57.025Z,23.62
2023-04-20T12:02:25.129Z,22.84
2023-04-20T12:04:53.676Z,20.69
2023-04-20T12:07:22.888Z,20.40
2023-04-20T12:09:50.915Z,20.37
2023-04-20T12:12:20.234Z,20.18
2023-04-20T12:14:48.340Z,20.41
2023-04-20T12:17:16.581Z,21.23
2023-04-20T12:19:45.003Z,21.27
2023-04-20T12:22:13.034Z,20.18
2023-04-20T12:24:41.507Z,20.31
2023-04-20T12:27:09.947Z,20.91
2023-04-20T12:29:37.934Z,19.94
2023-04-20T12:32:06.073Z,20.09
2023-04-20T12:34:34.458Z,20.43
2023-04-20T12:37:02.537Z,20.71
2023-04-20T12:39:30.583Z,21.35
2023-04-20T12:41:59.003Z,22.72
2023-04-20T12:44:27.203Z,22.39
2023-04-20T12:46:55.987Z,21.85
2023-04-20T12:49:24.393Z,21.73
2023-04-20T12:51:52.391Z,22.25
2023-04-20T12:54:20.628Z,21.08
2023-04-20T12:56:49.002Z,20.89
2023-04-20T12:59:17.040Z,20.43
2023-04-20T13:01:45.093Z,20.52
2023-04-20T13:04:16.386Z,20.78
2023-04-20T13:06:44.699Z,21.55
2023-04-20T13:09:12.870Z,21.25
2023-04-20T13:11:41.553Z,22.71
2023-04-20T13:14:09.568Z,22.80
2023-04-20T13:16:37.848Z,22.80
2023-04-20T13:19:06.275Z,23.22
2023-04-20T13:21:34.292Z,23.32
2023-04-20T13:24:02.328Z,23.12
2023-04-20T13:26:30.937Z,22.81
2023-04-20T13:28:59.008Z,23.94
2023-04-20T13:31:27.205Z,22.75
2023-04-20T13:33:55.692Z,22.80
2023-04-20T13:36:24.583Z,21.90
2023-04-20T13:38:53.716Z,21.65
2023-04-20T13:41:23.947Z,20.35
2023-04-20T13:43:52.059Z,20.39
2023-04-20T13:46:21.454Z,20.10
2023-04-20T13:48:49.828Z,20.13
2023-04-20T13:51:17.933Z,19.66
2023-04-20T13:53:48.355Z,20.15
2023-04-20T13:56:17.303Z,20.66
2023-04-20T13:58:45.453Z,20.96
2023-04-20T14:01:17.833Z,20.70
2023-04-20T14:03:46.529Z,20.68
2023-04-20T14:06:14.700Z,21.48
2023-04-20T14:08:43.745Z,21.70
2023-04-20T14:11:12.201Z,21.78
2023-04-20T14:13:41.374Z,22.03
2023-04-20T14:16:14.612Z,21.55
2023-04-20T14:18:43.047Z,21.63
2023-04-20T14:21:11.124Z,21.56
2023-04-20T14:23:39.193Z,21.95
2023-04-20T14:26:07.682Z,22.44
2023-04-20T14:28:36.136Z,22.22
2023-04-20T14:31:04.496Z,21.78
2023-04-20T14:33:32.949Z,21.68
2023-04-20T14:36:01.105Z,21.42
2023-04-20T14:38:29.121Z,22.13
2023-04-20T14:40:57.458Z,22.10
2023-04-20T14:43:25.460Z,22.38
2023-04-20T14:45:55.393Z,22.26
2023-04-20T14:48:25.273Z,22.05
2023-04-20T14:50:56.720Z,21.83
2023-04-20T14:53:25.154Z,22.33
2023-04-20T14:55:53.274Z,21.29
2023-04-20T14:58:21.322Z,21.65
2023-04-20T15:00:49.884Z,21.25
2023-04-20T15:03:18.676Z,21.63
2023-04-20T15:05:47.358Z,22.05
2023-04-20T15:08:15.897Z,22.13
2023-04-20T15:10:43.896Z,21.87
2023-04-20T15:13:11.904Z,21.49
2023-04-20T15:15:48.291Z,21.52
2023-04-20T15:18:18.014Z,21.53
2023-04-20T15:20:46.463Z,21.16
2023-04-20T15:23:14.481Z,21.73
2023-04-20T15:25:42.663Z,21.48
2023-04-20T15:28:11.416Z,21.40
2023-04-20T15:30:39.458Z,21.44
2023-04-20T15:33:08.077Z,21.00
2023-04-20T15:35:36.690Z,20.69
2023-04-20T15:38:04.785Z,20.71
2023-04-20T15:40:32.780Z,20.53
2023-04-20T15:43:03.051Z,20.82
2023-04-20T15:45:31.448Z,20.33
2023-04-20T15:48:01.190Z,20.38
2023-04-20T15:50:29.852Z,20.60
2023-04-20T15:52:57.886Z,20.03
2023-04-20T15:55:26.194Z,19.87
2023-04-20T15:57:57.509Z,19.98
2023-04-20T16:00:25.605Z,20.26
2023-04-20T16:02:54.404Z,20.18
2023-04-20T16:05:41.094Z,20.22
2023-04-20T16:08:28.096Z,20.57
2023-04-20T16:10:56.327Z,20.47
2023-04-20T16:13:26.389Z,20.58
2023-04-20T16:15:56.041Z,20.93
2023-04-20T16:18:24.744Z,20.91
2023-04-20T16:20:52.819Z,21.01
2023-04-20T16:23:20.937Z,20.88
2023-04-20T16:25:50.048Z,20.24
2023-04-20T16:28:18.393Z,20.73
2023-04-20T16:30:46.505Z,20.83
2023-04-20T16:33:15.515Z,20.69
2023-04-20T16:35:43.673Z,20.50
2023-04-20T16:38:11.769Z,20.44
2023-04-20T16:40:40.128Z,20.50
2023-04-20T16:43:08.148Z,20.90
2023-04-20T16:45:36.476Z,20.44
2023-04-20T16:48:05.213Z,19.83
2023-04-20T16:50:33.408Z,19.29
2023-04-20T16:53:01.455Z,19.51
2023-04-20T16:55:29.821Z,19.86
2023-04-20T16:58:01.220Z,19.25
2023-04-20T17:00:31.295Z,19.14
2023-04-20T17:03:01.616Z,18.95
2023-04-20T17:05:30.163Z,19.15
2023-04-20T17:07:58.139Z,19.03
2023-04-20T17:10:26.124Z,18.82
2023-04-20T17:12:54.502Z,19.17
2023-04-20T17:15:22.697Z,19.18
2023-04-20T17:17:50.808Z,19.13
2023-04-20T17:20:19.372Z,18.55
2023-04-20T17:22:47.416Z,18.33
2023-04-20T17:25:15.619Z,17.79
2023-04-20T17:27:44.057Z,17.97
2023-04-20T17:30:12.626Z,18.01
2023-04-20T17:32:40.783Z,17.60
2023-04-20T17:35:09.414Z,17.45
2023-04-20T17:37:37.387Z,17.68
2023-04-20T17:40:06.515Z,17.43
2023-04-20T17:42:35.124Z,17.39
2023-04-20T17:45:03.181Z,17.24
2023-04-20T17:47:32.844Z,17.57
2023-04-20T17:50:01.455Z,17.27
2023-04-20T17:52:29.565Z,17.28
2023-04-20T17:54:58.072Z,17.46
2023-04-20T17:57:26.700Z,17.05
2023-04-20T17:59:54.775Z,17.20
2023-04-20T18:02:24.685Z,17.03
2023-04-20T18:04:55.475Z,16.94
2023-04-20T18:07:23.939Z,16.72
2023-04-20T18:09:52.057Z,16.93
2023-04-20T18:12:20.866Z,16.77
2023-04-20T18:14:48.891Z,16.95
2023-04-20T18:17:16.878Z,16.70
2023-04-20T18:19:45.249Z,16.61
2023-04-20T18:22:14.979Z,16.56
2023-04-20T18:24:44.654Z,16.56
2023-04-20T18:27:13.537Z,16.46
2023-04-20T18:29:41.644Z,16.28
2023-04-20T18:32:09.682Z,16.22
2023-04-20T18:34:38.069Z,16.19
2023-04-20T18:37:06.224Z,16.27
2023-04-20T18:39:34.396Z,16.43
2023-04-20T18:42:02.773Z,16.47
2023-04-20T18:44:30.967Z,16.28
2023-04-20T18:46:59.177Z,16.52
2023-04-20T18:49:27.675Z,16.38
2023-04-20T18:51:55.712Z,16.07
2023-04-20T18:54:23.765Z,16.09
2023-04-20T18:56:52.227Z,16.08
2023-04-20T18:59:20.945Z,16.36
2023-04-20T19:01:49.405Z,16.23
2023-04-20T19:04:18.151Z,16.40
2023-04-20T19:06:46.368Z,16.28
2023-04-20T19:09:14.535Z,16.17
2023-04-20T19:11:43.032Z,16.47
2023-04-20T19:14:12.843Z,16.11
2023-04-20T19:16:42.090Z,16.40
2023-04-20T19:19:11.640Z,15.91
2023-04-20T19:21:40.106Z,16.36
2023-04-20T19:24:08.486Z,15.91
2023-04-20T19:26:37.074Z,16.04
2023-04-20T19:29:05.641Z,15.66
2023-04-20T19:31:38.071Z,15.82
2023-04-20T19:34:07.427Z,15.75
2023-04-20T19:36:36.075Z,15.53
2023-04-20T19:39:04.492Z,15.48
2023-04-20T19:41:33.492Z,15.31
2023-04-20T19:44:06.620Z,15.19
2023-04-20T19:46:35.137Z,15.16
2023-04-20T19:49:03.589Z,14.68
2023-04-20T19:51:35.329Z,14.42
2023-04-20T19:54:05.098Z,14.58
2023-04-20T19:56:34.438Z,14.43
2023-04-20T19:59:02.560Z,14.17
2023-04-20T20:01:31.149Z,14.15
2023-04-20T20:03:59.648Z,13.94
2023-04-20T20:06:28.665Z,13.79
2023-04-20T20:08:56.866Z,13.65
2023-04-20T20:11:25.948Z,13.44
2023-04-20T20:13:54.094Z,13.80
2023-04-20T20:16:22.524Z,13.76
2023-04-20T20:18:51.560Z,13.62
2023-04-20T20:21:19.678Z,13.31
2023-04-20T20:23:47.661Z,14.03
2023-04-20T20:26:16.237Z,13.48
2023-04-20T20:28:44.236Z,13.20
2023-04-20T20:31:12.237Z,12.84
2023-04-20T20:33:43.107Z,13.00
2023-04-20T20:36:11.239Z,12.98
2023-04-20T20:38:40.922Z,12.87
2023-04-20T20:41:09.537Z,12.68
2023-04-20T20:43:37.728Z,12.28
2023-04-20T20:46:06.109Z,12.41
2023-04-20T20:48:35.058Z,12.38
2023-04-20T20:51:03.165Z,12.78
2023-04-20T20:53:31.278Z,12.04
2023-04-20T20:55:59.698Z,12.21
2023-04-20T20:58:27.727Z,11.75
2023-04-20T21:00:55.802Z,11.76
2023-04-20T21:03:24.481Z,11.87
2023-04-20T21:05:54.700Z,11.82
2023-04-20T21:08:22.754Z,11.71
2023-04-20T21:10:51.346Z,11.75
2023-04-20T21:13:19.317Z,11.96
2023-04-20T21:15:47.474Z,11.76
2023-04-20T21:18:16.095Z,11.57
2023-04-20T21:20:44.339Z,10.84
2023-04-20T21:23:12.304Z,10.49
2023-04-20T21:25:40.612Z,10.43
2023-04-20T21:28:08.643Z,10.86
2023-04-20T21:30:36.646Z,10.62
2023-04-20T21:33:05.230Z,10.29
2023-04-20T21:35:33.223Z,10.70
2023-04-20T21:38:01.188Z,10.43
2023-04-20T21:40:29.451Z,9.98
2023-04-20T21:42:57.437Z,10.14
2023-04-20T21:45:25.415Z,9.97
2023-04-20T21:47:55.582Z,10.47
2023-04-20T21:50:27.338Z,9.84
2023-04-20T21:52:55.831Z,9.39
2023-04-20T21:55:23.837Z,9.75
2023-04-20T21:57:51.864Z,9.19
2023-04-20T22:00:20.486Z,9.17
2023-04-20T22:02:50.402Z,9.08
2023-04-20T22:05:18.710Z,9.63
2023-04-20T22:07:46.963Z,9.67
2023-04-20T22:10:15.506Z,9.53
2023-04-20T22:12:43.601Z,9.62
2023-04-20T22:15:13.856Z,9.76
2023-04-20T22:17:45.691Z,9.62
2023-04-20T22:20:15.674Z,9.32
2023-04-20T22:22:44.048Z,9.97
2023-04-20T22:25:12.362Z,9.73
2023-04-20T22:27:40.456Z,9.24
2023-04-20T22:30:09.879Z,9.21
2023-04-20T22:32:38.733Z,9.61
2023-04-20T22:35:08.037Z,9.36
2023-04-20T22:37:36.391Z,9.01
2023-04-20T22:40:06.236Z,9.06
2023-04-20T22:42:36.363Z,8.87
2023-04-20T22:45:05.284Z,9.04
2023-04-20T22:47:34.112Z,8.92
2023-04-20T22:50:02.192Z,8.39
2023-04-20T22:52:31.110Z,8.40
2023-04-20T22:54:59.270Z,8.25
2023-04-20T22:57:27.421Z,8.56
2023-04-20T22:59:55.782Z,8.26
2023-04-20T23:02:24.218Z,8.29
2023-04-20T23:04:52.824Z,8.85
2023-04-20T23:07:21.500Z,8.28
2023-04-20T23:09:49.527Z,8.52
2023-04-20T23:12:17.742Z,8.70
2023-04-20T23:14:46.116Z,8.47
2023-04-20T23:17:14.066Z,8.66
2023-04-20T23:19:42.090Z,8.60
2023-04-20T23:22:10.475Z,8.61
2023-04-20T23:24:38.437Z,8.68
2023-04-20T23:27:06.406Z,8.18
2023-04-20T23:29:34.930Z,8.03
2023-04-20T23:32:03.202Z,8.32
2023-04-20T23:34:31.365Z,8.00
2023-04-20T23:36:59.924Z,8.52
2023-04-20T23:39:28.101Z,8.50
2023-04-20T23:41:56.618Z,7.87
2023-04-20T23:44:25.020Z,8.38
2023-04-20T23:46:53.008Z,8.24
2023-04-20T23:49:21.216Z,8.77
2023-04-20T23:51:49.702Z,9.17
2023-04-20T23:54:17.682Z,8.67
2023-04-20T23:56:45.623Z,8.78
2023-04-20T23:59:14.156Z,9.02
